Chillicothe, Missouri
Current Conditions -  °F | °C
As of 4:15 PM on Saturday 25 Oct 2014 (Local Time) from KGPH Reporting Station
Clear Clear  
Wind Chill: 81°   Ceiling: Unl
Heat Index: 81°   Visibility: 10mi
Dew Point: 46°   Wind: 0mph
Humidity: 30%   Direction: NA
Pressure: 30.03"   Gusts: NA
Location:  39.79°N, 93.55°W
Report Text: KGPH 252115Z AUTO 00000KT 10SM CLR 27/08 A3003 RMK AO2
Loading
Personal Weather Stations






























Interactive Weather Map
Tropical Storm Tracking
New forecast layout! Learn more

10-Day Weather Forecast

Advertisements
Track Severe Weather on mobile